Time;durP1;ratioP1;P1;durP2;ratioP2;P2;SDS_P1;SDS_P2;PMS_P1;PMS_P2;Temp;Humidity;BMP_temperature;BMP_pressure;BME280_temperature;BME280_humidity;BME280_pressure;Samples;Min_cycle;Max_cycle;Signal;HPM_P1;HPM_P2
2023/08/27 00:01:02;;;;;;;0.10;0.10;;;15.00;56.40;;;;;;5031439;28;20200;-53
2023/08/27 00:03:33;;;;;;;0.10;0.10;;;15.00;56.40;;;;;;5031316;28;20192;-51
2023/08/27 00:06:04;;;;;;;0.10;0.10;;;15.00;56.40;;;;;;5031307;28;20652;-56
2023/08/27 00:08:36;;;;;;;0.10;0.10;;;15.10;56.40;;;;;;5031300;28;20247;-47
2023/08/27 00:11:07;;;;;;;0.05;0.05;;;15.10;56.40;;;;;;5031434;28;20188;-51
2023/08/27 00:13:37;;;;;;;0.00;0.00;;;15.10;56.40;;;;;;5031128;28;20192;-56
2023/08/27 00:16:09;;;;;;;0.10;0.10;;;15.10;56.40;;;;;;5030505;28;20196;-57
2023/08/27 00:18:39;;;;;;;0.10;0.10;;;15.20;56.30;;;;;;5030994;28;20259;-51
2023/08/27 00:21:10;;;;;;;0.10;0.10;;;15.10;56.20;;;;;;5031751;28;20203;-55
2023/08/27 00:23:43;;;;;;;0.10;0.10;;;15.20;56.20;;;;;;5031605;28;20235;-57
2023/08/27 00:26:14;;;;;;;0.00;0.00;;;15.20;56.20;;;;;;5031480;28;20679;-49
2023/08/27 00:28:45;;;;;;;0.10;0.10;;;15.20;56.10;;;;;;5031031;28;20216;-55
2023/08/27 00:31:15;;;;;;;0.10;0.10;;;15.20;56.10;;;;;;5031660;28;20196;-51
2023/08/27 00:33:46;;;;;;;0.10;0.10;;;15.20;56.10;;;;;;5031418;28;20204;-51
2023/08/27 00:36:17;;;;;;;0.10;0.10;;;15.20;56.10;;;;;;5031552;28;20196;-53
2023/08/27 00:38:49;;;;;;;0.10;0.10;;;15.20;56.10;;;;;;5031438;28;20223;-51
2023/08/27 00:41:20;;;;;;;0.10;0.10;;;15.20;56.10;;;;;;5031208;28;20258;-51
2023/08/27 00:43:50;;;;;;;0.10;0.10;;;15.20;56.10;;;;;;5031515;28;20219;-50
2023/08/27 00:46:21;;;;;;;0.00;0.00;;;15.30;56.10;;;;;;5031564;28;20579;-54
2023/08/27 00:48:52;;;;;;;0.10;0.10;;;15.30;56.10;;;;;;5030673;28;20220;-54
2023/08/27 00:51:23;;;;;;;0.10;0.10;;;15.30;56.10;;;;;;5033591;28;20278;-55
2023/08/27 00:53:55;;;;;;;0.10;0.10;;;15.30;56.10;;;;;;5035209;28;20254;-53
2023/08/27 00:56:26;;;;;;;0.10;0.10;;;15.30;56.10;;;;;;5034893;28;20561;-52
2023/08/27 00:58:57;;;;;;;0.10;0.10;;;15.30;55.90;;;;;;5034569;28;20216;-51
2023/08/27 01:01:29;;;;;;;0.10;0.10;;;15.40;56.00;;;;;;5034559;28;20200;-57
2023/08/27 01:04:00;;;;;;;0.10;0.10;;;15.40;56.00;;;;;;5034534;28;20722;-56
2023/08/27 01:06:30;;;;;;;0.10;0.10;;;15.30;55.90;;;;;;5034757;28;20192;-51
2023/08/27 01:09:10;;;;;;;0.10;0.10;;;15.40;56.00;;;;;;5035047;28;20274;-54
2023/08/27 01:11:57;;;;;;;0.00;0.00;;;15.40;55.90;;;;;;5034816;28;20224;-56
2023/08/27 01:14:32;;;;;;;0.10;0.10;;;15.40;55.90;;;;;;5034672;28;20207;-50
2023/08/27 01:17:05;;;;;;;0.10;0.10;;;15.40;55.90;;;;;;5034621;28;20203;-52
2023/08/27 01:19:36;;;;;;;0.10;0.10;;;15.40;55.90;;;;;;5034599;28;20212;-54
2023/08/27 01:22:09;;;;;;;0.10;0.10;;;15.50;55.90;;;;;;5034710;28;20200;-51
2023/08/27 01:24:40;;;;;;;0.10;0.10;;;15.50;55.90;;;;;;5034433;28;20204;-52
2023/08/27 01:27:14;;;;;;;0.10;0.10;;;15.50;55.80;;;;;;5016736;28;20204;-57
2023/08/27 01:29:49;;;;;;;0.10;0.10;;;15.50;55.80;;;;;;5034015;28;20639;-53
2023/08/27 01:32:26;;;;;;;0.10;0.10;;;15.50;55.80;;;;;;5034616;28;20263;-51
2023/08/27 01:34:58;;;;;;;0.03;0.03;;;15.50;55.70;;;;;;5034257;28;20675;-51
2023/08/27 01:37:31;;;;;;;0.10;0.10;;;15.50;55.70;;;;;;5034264;28;20686;-56
2023/08/27 01:40:05;;;;;;;0.10;0.10;;;15.50;55.60;;;;;;5034076;28;20223;-52
2023/08/27 01:42:37;;;;;;;0.00;0.00;;;15.50;55.70;;;;;;5034009;28;20198;-52
2023/08/27 01:45:09;;;;;;;0.10;0.10;;;15.60;55.70;;;;;;5034288;28;20231;-51
2023/08/27 01:47:40;;;;;;;0.10;0.10;;;15.60;55.70;;;;;;5034082;28;20204;-53
2023/08/27 01:50:11;;;;;;;0.10;0.10;;;15.60;55.70;;;;;;5033901;28;20227;-52
2023/08/27 01:52:44;;;;;;;0.10;0.10;;;15.60;55.70;;;;;;5034006;28;20278;-53
2023/08/27 01:55:15;;;;;;;0.00;0.00;;;15.60;55.60;;;;;;5033903;28;20231;-50
2023/08/27 01:57:46;;;;;;;0.10;0.10;;;15.70;55.70;;;;;;5034040;28;20204;-54
2023/08/27 02:00:18;;;;;;;0.10;0.10;;;15.70;55.60;;;;;;5033595;28;20216;-51
2023/08/27 02:02:49;;;;;;;0.10;0.10;;;15.70;55.60;;;;;;5031692;28;20235;-54
2023/08/27 02:05:20;;;;;;;0.10;0.10;;;15.70;55.60;;;;;;5033684;28;20204;-51
2023/08/27 02:07:52;;;;;;;0.00;0.00;;;15.70;55.60;;;;;;5033316;28;20203;-50
2023/08/27 02:10:23;;;;;;;0.10;0.10;;;15.70;55.50;;;;;;5032702;28;20726;-52
2023/08/27 02:12:54;;;;;;;0.10;0.10;;;15.70;55.40;;;;;;5032931;28;20224;-51
2023/08/27 02:15:24;;;;;;;0.10;0.10;;;15.70;55.40;;;;;;5032734;28;20207;-56
2023/08/27 02:17:55;;;;;;;0.10;0.10;;;15.70;55.30;;;;;;5032924;28;20196;-53
2023/08/27 02:20:26;;;;;;;0.10;0.10;;;15.70;55.30;;;;;;5033735;28;20212;-54
2023/08/27 02:22:58;;;;;;;0.05;0.05;;;15.70;55.30;;;;;;5033295;28;20203;-54
2023/08/27 02:25:29;;;;;;;0.10;0.10;;;15.70;55.30;;;;;;5033416;28;20251;-57
2023/08/27 02:28:00;;;;;;;0.10;0.10;;;15.70;55.30;;;;;;5033456;28;20718;-53
2023/08/27 02:30:30;;;;;;;0.05;0.05;;;15.80;55.40;;;;;;5033197;28;20223;-52
2023/08/27 02:33:01;;;;;;;0.10;0.10;;;15.80;55.30;;;;;;5032663;28;20228;-56
2023/08/27 02:35:31;;;;;;;0.10;0.10;;;15.80;55.30;;;;;;5033093;28;20203;-55
2023/08/27 02:38:04;;;;;;;0.08;0.08;;;15.80;55.30;;;;;;5032662;28;20215;-54
2023/08/27 02:40:35;;;;;;;0.10;0.10;;;15.80;55.30;;;;;;5032269;28;20196;-54
2023/08/27 02:43:05;;;;;;;0.10;0.10;;;15.80;55.30;;;;;;5033630;28;20204;-55
2023/08/27 02:45:36;;;;;;;0.10;0.10;;;15.80;55.30;;;;;;5032858;28;20196;-54
2023/08/27 02:48:07;;;;;;;0.10;0.10;;;15.80;55.20;;;;;;5031986;28;20192;-49
2023/08/27 02:50:38;;;;;;;0.10;0.10;;;15.90;55.20;;;;;;5032681;28;20410;-57
2023/08/27 02:53:10;;;;;;;0.10;0.10;;;15.90;55.10;;;;;;5032908;28;20243;-55
2023/08/27 02:55:41;;;;;;;0.05;0.05;;;15.90;55.10;;;;;;5032772;28;20199;-55
2023/08/27 02:58:11;;;;;;;0.10;0.10;;;15.90;55.10;;;;;;5032614;28;20830;-55
2023/08/27 03:00:43;;;;;;;0.10;0.10;;;15.80;55.00;;;;;;5032477;28;20648;-56
2023/08/27 03:03:14;;;;;;;0.10;0.10;;;15.90;55.10;;;;;;5032158;28;20219;-56
2023/08/27 03:05:44;;;;;;;0.10;0.10;;;15.90;55.10;;;;;;5032588;28;20608;-55
2023/08/27 03:08:17;;;;;;;0.10;0.10;;;15.90;55.10;;;;;;5032535;28;20203;-55
2023/08/27 03:10:47;;;;;;;0.10;0.10;;;15.90;55.10;;;;;;5032433;28;20207;-55
2023/08/27 03:13:18;;;;;;;0.10;0.10;;;15.90;55.10;;;;;;5031870;28;20224;-52
2023/08/27 03:15:49;;;;;;;0.10;0.10;;;15.90;55.10;;;;;;5032151;28;20200;-58
2023/08/27 03:18:19;;;;;;;0.10;0.10;;;15.90;55.10;;;;;;5032042;28;20196;-57
2023/08/27 03:20:50;;;;;;;0.10;0.10;;;15.90;55.10;;;;;;5032454;28;20195;-57
2023/08/27 03:23:23;;;;;;;0.10;0.10;;;15.90;55.10;;;;;;5032210;28;20604;-54
2023/08/27 03:25:53;;;;;;;0.10;0.10;;;15.90;55.00;;;;;;5032359;28;20208;-55
2023/08/27 03:28:24;;;;;;;0.10;0.10;;;15.90;55.00;;;;;;5032141;28;20208;-51
2023/08/27 03:30:54;;;;;;;0.10;0.10;;;15.90;55.00;;;;;;5031749;28;20196;-51
2023/08/27 03:33:25;;;;;;;0.00;0.00;;;15.90;54.90;;;;;;5031114;28;20695;-58
2023/08/27 03:35:57;;;;;;;0.10;0.10;;;15.90;54.90;;;;;;5031480;28;20205;-57
2023/08/27 03:38:29;;;;;;;0.05;0.05;;;15.90;54.90;;;;;;5032055;28;20220;-52
2023/08/27 03:41:00;;;;;;;0.10;0.10;;;16.00;55.00;;;;;;5031693;28;20215;-55
2023/08/27 03:43:30;;;;;;;0.10;0.10;;;16.00;55.00;;;;;;5031869;28;20192;-50
2023/08/27 03:46:01;;;;;;;0.03;0.03;;;16.00;54.90;;;;;;5031405;28;20207;-55
2023/08/27 03:48:32;;;;;;;0.08;0.08;;;16.00;55.00;;;;;;5031818;28;20216;-55
2023/08/27 03:51:02;;;;;;;0.10;0.10;;;16.00;55.00;;;;;;5031455;28;20207;-56
2023/08/27 03:53:36;;;;;;;0.10;0.10;;;16.00;55.00;;;;;;5031488;28;20239;-58
2023/08/27 03:56:07;;;;;;;0.10;0.10;;;16.00;54.90;;;;;;5031759;28;20202;-56
2023/08/27 03:58:38;;;;;;;0.10;0.10;;;16.00;54.90;;;;;;5031438;28;20227;-57
2023/08/27 04:01:08;;;;;;;0.10;0.10;;;16.00;54.90;;;;;;5030848;28;20200;-55
2023/08/27 04:03:39;;;;;;;0.10;0.10;;;16.00;54.90;;;;;;5031019;28;20199;-57
2023/08/27 04:06:10;;;;;;;0.00;0.00;;;16.00;54.90;;;;;;5031168;28;20352;-56
2023/08/27 04:08:42;;;;;;;0.10;0.10;;;16.00;54.80;;;;;;5030652;28;20244;-54
2023/08/27 04:11:13;;;;;;;0.10;0.10;;;16.00;54.80;;;;;;5031673;28;20203;-53
2023/08/27 04:13:44;;;;;;;0.10;0.10;;;16.00;54.80;;;;;;5031456;28;20219;-57
2023/08/27 04:16:15;;;;;;;0.10;0.10;;;16.00;54.70;;;;;;5030678;28;20223;-55
2023/08/27 04:18:46;;;;;;;0.10;0.10;;;16.10;54.80;;;;;;5031076;28;20227;-55
2023/08/27 04:21:16;;;;;;;0.10;0.10;;;16.10;55.30;;;;;;5031268;28;20196;-56
2023/08/27 04:23:49;;;;;;;0.10;0.10;;;16.10;54.80;;;;;;5030956;28;20192;-55
2023/08/27 04:26:20;;;;;;;0.10;0.10;;;16.10;54.80;;;;;;5033280;28;20218;-56
2023/08/27 04:28:50;;;;;;;0.10;0.10;;;16.10;54.80;;;;;;5034329;28;20342;-56
2023/08/27 04:31:21;;;;;;;0.05;0.05;;;16.10;54.80;;;;;;5034725;28;20506;-55
2023/08/27 04:33:51;;;;;;;0.10;0.10;;;16.10;54.70;;;;;;5035291;28;20227;-55
2023/08/27 04:36:22;;;;;;;0.10;0.10;;;16.10;54.70;;;;;;5034691;28;20652;-55
2023/08/27 04:38:55;;;;;;;0.10;0.10;;;16.10;54.80;;;;;;5035253;28;20227;-51
2023/08/27 04:41:25;;;;;;;0.10;0.10;;;16.10;54.70;;;;;;5035449;28;20664;-53
2023/08/27 04:43:56;;;;;;;0.00;0.00;;;16.10;54.80;;;;;;5035582;28;20206;-53
2023/08/27 04:46:27;;;;;;;0.10;0.10;;;16.10;54.60;;;;;;5034316;28;20207;-53
2023/08/27 04:48:57;;;;;;;0.10;0.10;;;16.10;54.60;;;;;;5034164;28;20215;-58
2023/08/27 04:51:29;;;;;;;0.10;0.10;;;16.10;54.60;;;;;;5034646;28;20200;-56
2023/08/27 04:54:01;;;;;;;0.00;0.00;;;16.10;54.60;;;;;;5034383;28;20256;-57
2023/08/27 04:56:32;;;;;;;0.10;0.10;;;16.10;54.60;;;;;;5035126;28;20204;-51
2023/08/27 04:59:03;;;;;;;0.10;0.10;;;16.10;54.60;;;;;;5034765;28;20219;-53
2023/08/27 05:01:33;;;;;;;0.10;0.10;;;16.10;54.60;;;;;;5034350;28;20628;-53
2023/08/27 05:04:04;;;;;;;0.10;0.10;;;16.10;54.60;;;;;;5034885;28;20200;-55
2023/08/27 05:06:35;;;;;;;0.05;0.05;;;16.10;54.60;;;;;;5034990;28;20192;-56
2023/08/27 05:09:07;;;;;;;0.00;0.00;;;16.10;54.60;;;;;;5034607;28;20239;-52
2023/08/27 05:11:38;;;;;;;0.10;0.10;;;16.10;54.60;;;;;;5034817;28;20254;-56
2023/08/27 05:14:08;;;;;;;0.10;0.10;;;16.10;54.60;;;;;;5034617;28;20278;-52
2023/08/27 05:16:39;;;;;;;0.10;0.10;;;16.10;54.60;;;;;;5033952;28;20597;-54
2023/08/27 05:19:10;;;;;;;0.00;0.00;;;16.10;54.50;;;;;;5034223;28;20729;-57
2023/08/27 05:21:41;;;;;;;0.00;0.00;;;16.10;54.50;;;;;;5034252;28;20204;-54
2023/08/27 05:24:13;;;;;;;0.08;0.08;;;16.10;55.10;;;;;;5034113;28;20192;-57
2023/08/27 05:26:44;;;;;;;0.10;0.10;;;16.10;54.50;;;;;;5034114;28;20215;-53
2023/08/27 05:29:15;;;;;;;0.10;0.10;;;16.10;54.60;;;;;;5033512;28;20247;-54
2023/08/27 05:31:45;;;;;;;0.10;0.10;;;16.10;54.50;;;;;;5034050;28;20206;-55
2023/08/27 05:34:16;;;;;;;0.10;0.10;;;16.10;54.50;;;;;;5033909;28;20224;-53
2023/08/27 05:36:47;;;;;;;0.00;0.00;;;16.10;54.50;;;;;;5032886;28;20195;-56
2023/08/27 05:39:19;;;;;;;0.20;0.20;;;16.10;54.60;;;;;;5033645;28;20246;-55
2023/08/27 05:41:50;;;;;;;0.10;0.10;;;16.10;54.50;;;;;;5033584;28;20199;-54
2023/08/27 05:44:21;;;;;;;0.10;0.10;;;16.00;54.50;;;;;;5033529;28;20234;-52
2023/08/27 05:46:52;;;;;;;0.10;0.10;;;16.00;54.50;;;;;;5033437;28;20192;-55
2023/08/27 05:49:22;;;;;;;0.03;0.03;;;16.00;54.50;;;;;;5033538;28;20242;-57
2023/08/27 05:51:53;;;;;;;0.10;0.10;;;16.00;54.50;;;;;;5034001;28;20204;-53
2023/08/27 05:54:25;;;;;;;0.00;0.00;;;16.00;54.50;;;;;;5033957;28;20471;-56
2023/08/27 05:56:56;;;;;;;0.10;0.10;;;16.00;54.50;;;;;;5033693;28;20223;-53
2023/08/27 05:59:26;;;;;;;0.10;0.10;;;16.00;54.50;;;;;;5033001;28;20223;-57
2023/08/27 06:01:57;;;;;;;0.10;0.10;;;16.00;54.50;;;;;;5033633;28;20200;-57
2023/08/27 06:04:28;;;;;;;0.10;0.10;;;16.00;54.50;;;;;;5033731;28;20200;-55
2023/08/27 06:06:59;;;;;;;0.10;0.10;;;16.00;54.50;;;;;;5033393;28;20196;-56
2023/08/27 06:09:31;;;;;;;0.10;0.10;;;15.90;54.50;;;;;;5032944;28;20532;-53
2023/08/27 06:12:02;;;;;;;0.10;0.10;;;15.90;54.50;;;;;;5032530;28;20199;-49
2023/08/27 06:14:33;;;;;;;0.10;0.10;;;15.90;54.40;;;;;;5032176;28;20228;-49
2023/08/27 06:17:03;;;;;;;0.10;0.10;;;15.90;54.50;;;;;;5030720;28;20200;-54
2023/08/27 06:19:34;;;;;;;0.05;0.05;;;15.90;54.40;;;;;;5032323;28;20212;-50
2023/08/27 06:22:05;;;;;;;0.08;0.08;;;15.90;54.40;;;;;;5030535;28;20235;-56
2023/08/27 06:24:37;;;;;;;0.10;0.10;;;15.90;54.40;;;;;;5032184;28;20200;-57
2023/08/27 06:27:08;;;;;;;0.10;0.10;;;15.90;54.40;;;;;;5032687;28;20263;-55
2023/08/27 06:29:39;;;;;;;0.10;0.10;;;15.80;54.40;;;;;;5030963;28;20216;-52
2023/08/27 06:32:09;;;;;;;0.10;0.10;;;15.80;54.40;;;;;;5032225;28;20198;-52
2023/08/27 06:34:40;;;;;;;0.10;0.10;;;15.80;54.40;;;;;;5032641;28;20224;-57
2023/08/27 06:37:11;;;;;;;0.10;0.10;;;15.80;54.40;;;;;;5029902;28;20204;-55
2023/08/27 06:39:43;;;;;;;0.10;0.10;;;15.80;54.40;;;;;;5032768;28;20220;-56
2023/08/27 06:42:14;;;;;;;0.10;0.10;;;15.80;54.40;;;;;;5032366;28;20204;-52
2023/08/27 06:44:45;;;;;;;0.10;0.10;;;15.80;54.40;;;;;;5032066;28;20248;-55
2023/08/27 06:47:15;;;;;;;0.10;0.10;;;15.80;54.40;;;;;;5032490;28;20604;-55
2023/08/27 06:49:46;;;;;;;0.10;0.10;;;15.80;54.40;;;;;;5030914;28;20270;-56
2023/08/27 06:52:17;;;;;;;0.10;0.10;;;15.70;54.40;;;;;;5030990;28;20197;-52
2023/08/27 06:54:50;;;;;;;0.10;0.10;;;15.70;54.40;;;;;;5031491;28;20270;-55
2023/08/27 06:57:21;;;;;;;0.10;0.10;;;15.70;54.40;;;;;;5032309;28;20612;-53
2023/08/27 06:59:52;;;;;;;0.10;0.10;;;15.70;54.40;;;;;;5030355;28;20688;-51
2023/08/27 07:02:22;;;;;;;0.10;0.10;;;15.70;54.40;;;;;;5030816;28;20198;-57
2023/08/27 07:04:53;;;;;;;0.00;0.00;;;15.60;55.00;;;;;;5031556;28;20199;-55
2023/08/27 07:07:24;;;;;;;0.08;0.08;;;15.70;54.40;;;;;;5031659;28;20703;-54
2023/08/27 07:09:56;;;;;;;0.10;0.10;;;15.60;54.30;;;;;;5032224;28;20224;-53
2023/08/27 07:12:28;;;;;;;0.10;0.10;;;15.60;54.30;;;;;;5030937;28;20211;-57
2023/08/27 07:14:58;;;;;;;0.10;0.10;;;15.60;54.30;;;;;;5030013;28;20228;-56
2023/08/27 07:17:32;;;;;;;0.00;0.00;;;15.60;54.30;;;;;;5031204;28;20574;-57
2023/08/27 07:20:04;;;;;;;0.10;0.10;;;15.60;54.30;;;;;;5032003;28;20222;-54
2023/08/27 07:22:34;;;;;;;0.10;0.10;;;15.60;54.30;;;;;;5032216;28;20200;-55
2023/08/27 07:25:08;;;;;;;0.10;0.10;;;15.50;54.40;;;;;;5032019;28;20207;-58
2023/08/27 07:27:39;;;;;;;0.10;0.10;;;15.50;54.30;;;;;;5032175;28;20614;-55
2023/08/27 07:30:10;;;;;;;0.10;0.10;;;15.50;54.40;;;;;;5031394;28;20227;-57
2023/08/27 07:32:41;;;;;;;0.10;0.10;;;15.50;54.40;;;;;;5032059;28;20258;-56
2023/08/27 07:35:12;;;;;;;0.10;0.10;;;15.50;54.40;;;;;;5032040;28;20263;-55
2023/08/27 07:37:42;;;;;;;0.10;0.10;;;15.50;54.40;;;;;;5031569;28;20189;-53
2023/08/27 07:40:15;;;;;;;0.10;0.10;;;15.50;54.40;;;;;;5031827;28;20224;-51
2023/08/27 07:42:46;;;;;;;0.03;0.03;;;15.50;54.40;;;;;;5031648;28;20196;-54
2023/08/27 07:45:17;;;;;;;0.10;0.10;;;15.50;54.40;;;;;;5031946;28;20200;-53
2023/08/27 07:47:47;;;;;;;0.10;0.10;;;15.40;54.30;;;;;;5031529;28;20644;-57
2023/08/27 07:50:18;;;;;;;0.10;0.10;;;15.40;54.30;;;;;;5031358;28;20246;-55
2023/08/27 07:52:49;;;;;;;0.10;0.10;;;15.40;54.30;;;;;;5031667;28;20204;-53
2023/08/27 07:55:21;;;;;;;0.10;0.10;;;15.40;54.40;;;;;;5031505;28;20236;-55
2023/08/27 07:57:52;;;;;;;0.10;0.10;;;15.40;54.30;;;;;;5031195;28;20219;-56
2023/08/27 08:00:23;;;;;;;0.03;0.03;;;15.40;54.30;;;;;;5031296;28;20212;-52
2023/08/27 08:02:53;;;;;;;0.10;0.10;;;15.40;54.30;;;;;;5031561;28;20656;-50
2023/08/27 08:05:24;;;;;;;0.10;0.10;;;15.30;54.30;;;;;;5031708;28;20224;-55
2023/08/27 08:07:55;;;;;;;0.10;0.10;;;15.30;54.30;;;;;;5031415;28;20200;-57
2023/08/27 08:10:27;;;;;;;0.10;0.10;;;15.30;54.40;;;;;;5031311;28;20227;-50
2023/08/27 08:12:58;;;;;;;0.10;0.10;;;15.30;54.30;;;;;;5031182;28;20562;-53
2023/08/27 08:15:32;;;;;;;0.10;0.10;;;15.30;54.40;;;;;;5031271;28;20231;-53
2023/08/27 08:18:04;;;;;;;0.10;0.10;;;15.30;54.40;;;;;;5031450;28;20565;-56
2023/08/27 08:20:34;;;;;;;0.10;0.10;;;15.30;54.40;;;;;;5031415;28;20652;-50
2023/08/27 08:23:05;;;;;;;0.10;0.10;;;15.30;54.40;;;;;;5030707;28;20203;-52
2023/08/27 08:25:38;;;;;;;0.10;0.10;;;15.20;54.40;;;;;;5031397;28;20207;-52
2023/08/27 08:28:08;;;;;;;0.10;0.10;;;15.20;54.40;;;;;;5030203;28;20196;-56
2023/08/27 08:30:39;;;;;;;0.05;0.05;;;15.20;54.40;;;;;;5031067;28;20207;-51
2023/08/27 08:33:10;;;;;;;0.10;0.10;;;15.20;54.40;;;;;;5031149;28;20215;-56
2023/08/27 08:35:40;;;;;;;0.10;0.10;;;15.20;54.40;;;;;;5031327;28;20231;-55
2023/08/27 08:38:11;;;;;;;0.10;0.10;;;15.20;54.40;;;;;;5030960;28;20215;-52
2023/08/27 08:40:46;;;;;;;0.13;0.13;;;15.20;54.40;;;;;;5031227;28;20203;-52
2023/08/27 08:43:22;;;;;;;0.05;0.05;;;15.20;54.40;;;;;;5029932;28;20714;-55
2023/08/27 08:46:01;;;;;;;0.10;0.10;;;15.20;54.70;;;;;;5030974;28;20257;-51
2023/08/27 08:48:35;;;;;;;0.05;0.05;;;15.10;54.70;;;;;;5031248;28;20223;-56
2023/08/27 08:51:08;;;;;;;0.10;0.10;;;15.10;54.70;;;;;;5031388;28;20196;-50
2023/08/27 08:53:42;;;;;;;0.10;0.10;;;15.20;54.70;;;;;;5031121;28;20194;-52
2023/08/27 08:56:16;;;;;;;0.05;0.05;;;15.10;54.60;;;;;;5030933;28;20202;-58
2023/08/27 08:58:53;;;;;;;0.10;0.10;;;15.20;54.70;;;;;;5030418;28;20219;-58
2023/08/27 09:01:24;;;;;;;0.10;0.10;;;15.10;54.70;;;;;;5030698;28;20199;-53
2023/08/27 09:03:56;;;;;;;0.10;0.10;;;15.10;54.60;;;;;;5031006;28;20192;-52
2023/08/27 09:06:27;;;;;;;0.10;0.10;;;15.10;54.60;;;;;;5030926;28;20204;-54
2023/08/27 09:08:59;;;;;;;0.10;0.10;;;15.10;54.60;;;;;;5030903;28;20342;-56
2023/08/27 09:11:34;;;;;;;0.10;0.10;;;15.10;54.60;;;;;;5031756;28;20196;-58
2023/08/27 09:14:06;;;;;;;0.10;0.10;;;15.10;54.60;;;;;;5033707;28;20249;-50
2023/08/27 09:16:37;;;;;;;0.10;0.10;;;15.00;54.60;;;;;;5034294;28;20197;-51
2023/08/27 09:19:08;;;;;;;0.10;0.10;;;15.00;54.60;;;;;;5034027;28;20598;-59
2023/08/27 09:21:38;;;;;;;0.10;0.10;;;15.00;54.50;;;;;;5033926;28;20204;-52
2023/08/27 09:24:10;;;;;;;0.10;0.10;;;15.00;54.60;;;;;;5034026;28;20204;-55
2023/08/27 09:26:42;;;;;;;0.10;0.10;;;15.00;54.60;;;;;;5034135;28;20618;-55
2023/08/27 09:29:13;;;;;;;0.10;0.10;;;15.00;54.60;;;;;;5034220;28;20688;-58
2023/08/27 09:31:45;;;;;;;0.10;0.10;;;15.00;54.60;;;;;;5033954;28;20196;-54
2023/08/27 09:34:17;;;;;;;0.00;0.00;;;15.00;54.60;;;;;;5033716;28;20216;-50
2023/08/27 09:36:48;;;;;;;0.10;0.10;;;15.00;54.60;;;;;;5034175;28;20239;-57
2023/08/27 09:39:19;;;;;;;0.10;0.10;;;14.90;54.50;;;;;;5034296;28;20216;-55
2023/08/27 09:41:52;;;;;;;0.10;0.10;;;14.90;54.50;;;;;;5033830;28;20204;-50
2023/08/27 09:44:27;;;;;;;0.10;0.10;;;14.90;54.60;;;;;;5034582;28;20212;-57
2023/08/27 09:47:08;;;;;;;0.10;0.10;;;14.90;54.60;;;;;;5034117;28;20203;-50
2023/08/27 09:49:45;;;;;;;0.10;0.10;;;14.90;54.60;;;;;;5034457;28;20375;-56
2023/08/27 09:52:24;;;;;;;0.20;0.20;;;14.90;54.60;;;;;;5034124;28;20192;-56
2023/08/27 09:54:55;;;;;;;0.10;0.10;;;14.90;54.60;;;;;;5034080;28;20223;-55
2023/08/27 09:57:27;;;;;;;0.00;0.00;;;14.90;54.60;;;;;;5033126;28;20237;-54
2023/08/27 09:59:58;;;;;;;0.10;0.10;;;14.90;54.60;;;;;;5033295;28;20220;-57
2023/08/27 10:02:29;;;;;;;0.10;0.10;;;14.90;54.60;;;;;;5033872;28;20203;-52
2023/08/27 10:04:59;;;;;;;0.10;0.10;;;14.90;54.60;;;;;;5033746;28;20196;-54
2023/08/27 10:07:30;;;;;;;0.10;0.10;;;14.80;54.60;;;;;;5033294;28;20192;-53
2023/08/27 10:10:02;;;;;;;0.10;0.10;;;14.80;54.60;;;;;;5033404;28;20220;-56
2023/08/27 10:12:36;;;;;;;0.10;0.10;;;14.80;54.60;;;;;;5032681;28;20192;-54
2023/08/27 10:15:07;;;;;;;0.17;0.17;;;14.80;54.60;;;;;;5030116;28;20220;-51
2023/08/27 10:17:39;;;;;;;0.10;0.10;;;14.80;54.60;;;;;;5033094;28;20264;-48
2023/08/27 10:20:10;;;;;;;0.10;0.10;;;14.80;54.60;;;;;;5032821;28;20220;-49
2023/08/27 10:22:42;;;;;;;0.20;0.20;;;14.80;54.60;;;;;;5033419;28;20687;-51
2023/08/27 10:25:14;;;;;;;0.10;0.10;;;14.80;54.60;;;;;;5033244;28;20193;-53
2023/08/27 10:27:49;;;;;;;0.10;0.10;;;14.80;54.60;;;;;;5033252;28;20196;-51
2023/08/27 10:30:20;;;;;;;0.10;0.10;;;14.80;54.60;;;;;;5033116;28;20703;-54
2023/08/27 10:32:51;;;;;;;0.15;0.15;;;14.70;54.60;;;;;;5033005;28;20212;-45
2023/08/27 10:35:22;;;;;;;0.10;0.10;;;14.70;55.10;;;;;;5032766;28;20279;-50
2023/08/27 10:37:56;;;;;;;0.10;0.10;;;14.70;54.60;;;;;;5032560;28;20222;-54
2023/08/27 10:40:28;;;;;;;0.10;0.10;;;14.70;54.60;;;;;;5033123;28;20220;-51
2023/08/27 10:43:18;;;;;;;0.20;0.20;;;14.70;54.60;;;;;;5032903;28;20196;-52
2023/08/27 10:45:49;;;;;;;0.13;0.13;;;14.70;54.60;;;;;;5032877;28;20232;-53
2023/08/27 10:48:30;;;;;;;0.10;0.10;;;14.70;54.60;;;;;;5032375;28;20664;-52
2023/08/27 10:51:15;;;;;;;0.10;0.10;;;14.70;54.60;;;;;;5032949;28;20390;-56
2023/08/27 10:54:00;;;;;;;0.10;0.10;;;14.70;54.60;;;;;;5030538;28;20196;-56
2023/08/27 10:56:38;;;;;;;0.10;0.10;;;14.70;54.60;;;;;;5032206;28;20227;-57
2023/08/27 10:59:27;;;;;;;0.10;0.10;;;14.70;54.60;;;;;;5032303;28;20228;-53
2023/08/27 11:02:08;;;;;;;0.10;0.10;;;14.60;54.60;;;;;;5032121;28;20199;-52
2023/08/27 11:04:41;;;;;;;0.10;0.10;;;14.60;54.60;;;;;;5032296;28;20282;-55
2023/08/27 11:07:15;;;;;;;0.10;0.10;;;14.60;54.60;;;;;;5032279;28;20671;-51
2023/08/27 11:09:52;;;;;;;0.10;0.10;;;14.60;54.60;;;;;;5032137;28;20256;-55
2023/08/27 11:12:26;;;;;;;0.10;0.10;;;14.60;54.60;;;;;;5032359;28;20200;-56
2023/08/27 11:15:11;;;;;;;0.10;0.10;;;14.60;54.60;;;;;;5032160;28;20219;-53
2023/08/27 11:17:43;;;;;;;0.17;0.17;;;14.60;54.60;;;;;;5031983;28;20239;-57
2023/08/27 11:20:24;;;;;;;0.10;0.10;;;14.50;54.60;;;;;;5031708;28;20216;-49
2023/08/27 11:22:59;;;;;;;0.10;0.10;;;14.50;54.60;;;;;;5032497;28;20231;-51
2023/08/27 11:25:31;;;;;;;0.10;0.10;;;14.50;54.60;;;;;;5031832;28;20585;-50
2023/08/27 11:28:03;;;;;;;0.10;0.10;;;14.50;54.70;;;;;;5032041;28;20660;-54
2023/08/27 11:30:35;;;;;;;0.10;0.10;;;14.50;54.70;;;;;;5032412;28;20246;-50
2023/08/27 11:33:06;;;;;;;0.00;0.00;;;14.50;54.70;;;;;;5032246;28;20211;-48
2023/08/27 11:35:40;;;;;;;0.10;0.10;;;14.50;54.70;;;;;;5031361;28;20231;-51
2023/08/27 11:38:12;;;;;;;0.10;0.10;;;14.50;54.60;;;;;;5031577;28;20660;-54
2023/08/27 11:40:43;;;;;;;0.10;0.10;;;14.50;54.70;;;;;;5031720;28;20207;-52
2023/08/27 11:43:13;;;;;;;0.10;0.10;;;14.50;54.60;;;;;;5031614;28;20200;-53
2023/08/27 11:45:46;;;;;;;0.10;0.10;;;14.50;54.70;;;;;;5031334;28;20590;-50
2023/08/27 11:48:17;;;;;;;0.10;0.10;;;14.50;54.60;;;;;;5031206;28;20566;-50
2023/08/27 11:50:48;;;;;;;0.10;0.10;;;14.50;54.60;;;;;;5032002;28;20200;-50
2023/08/27 11:53:19;;;;;;;0.10;0.10;;;14.50;54.70;;;;;;5031788;28;20196;-54
2023/08/27 11:55:49;;;;;;;0.10;0.10;;;14.40;54.60;;;;;;5031507;28;20223;-54
2023/08/27 11:58:20;;;;;;;0.20;0.20;;;14.40;54.70;;;;;;5031360;28;20207;-53
2023/08/27 12:00:57;;;;;;;0.10;0.10;;;14.40;54.70;;;;;;5031280;28;20543;-52
2023/08/27 12:03:28;;;;;;;0.10;0.10;;;14.40;54.70;;;;;;5031398;28;20283;-51
2023/08/27 12:05:59;;;;;;;0.10;0.10;;;14.40;54.70;;;;;;5031334;28;20211;-54
2023/08/27 12:08:29;;;;;;;0.10;0.10;;;14.40;54.70;;;;;;5031378;28;20216;-52
2023/08/27 12:11:00;;;;;;;0.00;0.00;;;14.40;54.70;;;;;;5031466;28;20652;-56
2023/08/27 12:13:32;;;;;;;0.00;0.00;;;14.40;54.70;;;;;;5031109;28;20196;-50
2023/08/27 12:16:05;;;;;;;0.10;0.10;;;14.40;54.70;;;;;;5031135;28;20290;-52
2023/08/27 12:18:38;;;;;;;0.10;0.10;;;14.40;54.70;;;;;;5031020;28;20204;-49
2023/08/27 12:21:09;;;;;;;0.10;0.10;;;14.40;54.70;;;;;;5031308;28;20651;-50
2023/08/27 12:23:39;;;;;;;0.05;0.05;;;14.40;54.70;;;;;;5031240;28;20208;-53
2023/08/27 12:26:10;;;;;;;0.10;0.10;;;14.40;54.70;;;;;;5031050;28;20211;-53
2023/08/27 12:28:41;;;;;;;0.10;0.10;;;14.40;54.70;;;;;;5030772;28;20563;-46
2023/08/27 12:31:13;;;;;;;0.10;0.10;;;14.40;54.70;;;;;;5030879;28;20652;-51
2023/08/27 12:33:45;;;;;;;0.10;0.10;;;14.30;54.60;;;;;;5030659;28;20228;-50
2023/08/27 12:36:16;;;;;;;0.10;0.10;;;14.40;54.70;;;;;;5031218;28;20224;-55
2023/08/27 12:38:46;;;;;;;0.08;0.08;;;14.30;54.60;;;;;;5031498;28;20684;-51
2023/08/27 12:41:17;;;;;;;0.10;0.10;;;14.30;54.60;;;;;;5031418;28;20203;-55
2023/08/27 12:43:48;;;;;;;0.10;0.10;;;14.30;54.70;;;;;;5031038;28;20196;-49
2023/08/27 12:46:20;;;;;;;0.10;0.10;;;14.30;54.70;;;;;;5031468;28;20655;-50
2023/08/27 12:48:51;;;;;;;0.10;0.10;;;14.30;54.70;;;;;;5034787;28;20223;-54
2023/08/27 12:51:22;;;;;;;0.10;0.10;;;14.30;54.70;;;;;;5035669;28;20532;-52
2023/08/27 12:53:52;;;;;;;0.10;0.10;;;14.20;54.60;;;;;;5034795;28;20192;-49
2023/08/27 12:56:23;;;;;;;0.10;0.10;;;14.30;54.70;;;;;;5034580;28;20223;-52
2023/08/27 12:58:53;;;;;;;0.10;0.10;;;14.20;54.60;;;;;;5034532;28;20266;-49
2023/08/27 13:01:26;;;;;;;0.10;0.10;;;14.20;55.20;;;;;;5034790;28;20200;-50
2023/08/27 13:03:56;;;;;;;0.10;0.10;;;14.20;54.70;;;;;;5034898;28;20207;-52
2023/08/27 13:06:28;;;;;;;0.03;0.03;;;14.20;54.60;;;;;;5034712;28;20204;-52
2023/08/27 13:08:59;;;;;;;0.10;0.10;;;14.20;54.60;;;;;;5034557;28;20398;-51
2023/08/27 13:11:30;;;;;;;0.10;0.10;;;14.20;54.70;;;;;;5034752;28;20192;-48